Time;durP1;ratioP1;P1;durP2;ratioP2;P2;SDS_P1;SDS_P2;PMS_P1;PMS_P2;Temp;Humidity;BMP_temperature;BMP_pressure;BME280_temperature;BME280_humidity;BME280_pressure;Samples;Min_cycle;Max_cycle;Signal;HPM_P1;HPM_P2
2021/12/24 00:02:12;;;;;;;25.20;16.58;;;-0.80;95.90;;;;;;4978992;28;20593;-64
2021/12/24 00:04:38;;;;;;;24.77;16.17;;;-0.90;96.30;;;;;;4977800;28;20546;-64
2021/12/24 00:07:04;;;;;;;24.95;16.60;;;-1.20;96.70;;;;;;4976133;28;20059;-64
2021/12/24 00:09:33;;;;;;;24.30;16.15;;;-1.30;97.10;;;;;;4977947;28;20034;-64
2021/12/24 00:12:02;;;;;;;23.73;15.63;;;-1.20;97.30;;;;;;4978217;28;20033;-64
2021/12/24 00:14:30;;;;;;;25.63;16.92;;;-1.10;97.20;;;;;;4981131;28;20026;-64
2021/12/24 00:16:59;;;;;;;30.70;17.23;;;-1.10;97.20;;;;;;4981480;28;20437;-64
2021/12/24 00:19:42;;;;;;;24.52;16.45;;;-1.20;97.30;;;;;;4977172;28;20530;-65
2021/12/24 00:22:27;;;;;;;25.77;16.83;;;-1.10;97.20;;;;;;4981354;28;20065;-64
2021/12/24 00:35:50;;;;;;;25.38;16.90;;;-0.50;96.60;;;;;;4978826;28;20677;-64
2021/12/24 00:38:16;;;;;;;28.85;18.83;;;-0.40;96.30;;;;;;4979699;28;20030;-64
2021/12/24 00:40:45;;;;;;;29.23;18.73;;;-0.20;96.10;;;;;;4977901;28;20116;-63
2021/12/24 00:43:12;;;;;;;30.02;19.08;;;-0.10;95.80;;;;;;4977128;28;20093;-63
2021/12/24 00:45:42;;;;;;;29.77;18.65;;;-0.30;95.80;;;;;;4979349;28;20068;-64
2021/12/24 00:48:09;;;;;;;28.00;18.05;;;-0.40;96.10;;;;;;4979379;28;20038;-64
2021/12/24 00:51:19;;;;;;;31.60;19.83;;;-0.50;96.20;;;;;;4975206;28;20034;-64
2021/12/24 00:56:15;;;;;;;30.10;18.48;;;-0.70;96.50;;;;;;4983321;28;20026;-65
2021/12/24 00:58:42;;;;;;;27.42;17.90;;;-0.70;96.90;;;;;;4971027;28;20050;-63
2021/12/24 01:01:10;;;;;;;30.90;18.13;;;-0.80;97.00;;;;;;4974205;28;20022;-64
2021/12/24 01:03:36;;;;;;;29.58;18.83;;;-0.80;97.20;;;;;;4980261;28;20026;-64
2021/12/24 01:06:03;;;;;;;25.38;17.02;;;-0.90;97.50;;;;;;4981544;28;20110;-64
2021/12/24 01:08:29;;;;;;;31.65;17.20;;;-0.80;97.80;;;;;;4979069;28;20117;-63
2021/12/24 01:11:00;;;;;;;26.33;17.73;;;-0.50;97.30;;;;;;4975416;28;20577;-64
2021/12/24 01:13:27;;;;;;;;;;;-0.50;97.30;;;;;;4980336;28;20121;-65
2021/12/24 01:16:03;;;;;;;27.88;17.35;;;-0.40;97.30;;;;;;4974633;28;19914;-64
2021/12/24 01:21:34;;;;;;;27.77;18.77;;;0.00;96.60;;;;;;4982407;28;20045;-64
2021/12/24 01:23:57;;;;;;;27.08;18.13;;;0.10;96.50;;;;;;4981201;28;20050;-64
2021/12/24 01:26:37;;;;;;;29.08;19.70;;;0.20;96.40;;;;;;4977855;28;20489;-64
2021/12/24 01:42:46;;;;;;;26.83;17.85;;;0.30;96.60;;;;;;4984252;28;20037;-65
2021/12/24 01:45:16;;;;;;;27.45;18.67;;;0.40;96.30;;;;;;4982626;28;20034;-65
2021/12/24 01:47:42;;;;;;;26.90;18.50;;;0.40;96.30;;;;;;4981195;28;20050;-65
2021/12/24 01:50:07;;;;;;;27.08;18.63;;;0.50;96.50;;;;;;4978681;28;20038;-65
2021/12/24 01:52:33;;;;;;;28.85;18.83;;;0.50;96.40;;;;;;4982128;28;20034;-64
2021/12/24 01:55:00;;;;;;;30.77;18.90;;;0.30;96.50;;;;;;4980009;28;20596;-64
2021/12/24 01:57:29;;;;;;;26.73;18.13;;;0.30;96.60;;;;;;4979572;28;20067;-64
2021/12/24 01:59:55;;;;;;;30.27;19.48;;;0.40;96.50;;;;;;4977827;28;20066;-64
2021/12/24 02:02:20;;;;;;;26.50;17.75;;;0.20;96.30;;;;;;4980987;28;20141;-64
2021/12/24 02:04:46;;;;;;;28.50;18.65;;;0.10;96.50;;;;;;4980770;28;20118;-64
2021/12/24 02:07:12;;;;;;;31.90;19.60;;;0.10;96.80;;;;;;4979453;28;20117;-65
2021/12/24 02:09:37;;;;;;;33.00;19.58;;;0.20;96.90;;;;;;4979735;28;20037;-65
2021/12/24 02:12:06;;;;;;;29.23;19.42;;;0.30;96.90;;;;;;4980321;28;20393;-64
2021/12/24 02:14:36;;;;;;;30.88;19.40;;;0.30;97.00;;;;;;4985921;28;20117;-64
2021/12/24 02:30:37;;;;;;;34.47;21.40;;;-0.90;99.80;;;;;;4980394;28;21718;-64
2021/12/24 02:33:04;;;;;;;33.35;20.98;;;-0.90;99.80;;;;;;4980780;28;20031;-64
2021/12/24 02:35:31;;;;;;;37.15;22.52;;;-0.80;99.80;;;;;;4981020;28;20038;-64
2021/12/24 02:37:58;;;;;;;36.72;22.55;;;-0.70;99.50;;;;;;4976188;28;20495;-64
2021/12/24 02:40:23;;;;;;;36.63;23.70;;;-0.60;99.30;;;;;;4979166;28;20038;-64
2021/12/24 02:42:53;;;;;;;37.90;23.20;;;-0.40;99.20;;;;;;4983545;28;20061;-65
2021/12/24 02:45:20;;;;;;;32.30;22.60;;;-0.20;98.80;;;;;;4979338;28;20092;-64
2021/12/24 02:56:02;;;;;;;37.60;23.33;;;0.00;98.10;;;;;;5003895;28;20504;-64
2021/12/24 02:58:37;;;;;;;41.38;23.77;;;-0.10;98.50;;;;;;4980109;28;20022;-64
2021/12/24 03:01:03;;;;;;;38.67;23.83;;;0.00;98.70;;;;;;4976325;28;20545;-64
2021/12/24 03:03:29;;;;;;;39.33;23.35;;;0.10;98.60;;;;;;4983657;28;20041;-64
2021/12/24 03:05:54;;;;;;;36.67;24.35;;;0.10;98.40;;;;;;4982674;28;20046;-64
2021/12/24 03:08:20;;;;;;;35.75;23.67;;;-0.10;98.70;;;;;;4979737;28;20022;-65
2021/12/24 03:10:46;;;;;;;39.60;25.73;;;-0.20;99.00;;;;;;5007605;28;20082;-64
2021/12/24 03:13:11;;;;;;;35.65;23.35;;;-0.20;99.30;;;;;;4981209;28;20027;-64
2021/12/24 03:15:39;;;;;;;31.08;21.88;;;-0.10;99.40;;;;;;4977430;28;20030;-63
2021/12/24 03:18:04;;;;;;;33.65;22.73;;;0.10;99.10;;;;;;4981132;28;20027;-64
2021/12/24 03:20:34;;;;;;;38.47;24.67;;;0.30;98.70;;;;;;4976355;28;20089;-64
2021/12/24 03:25:25;;;;;;;36.05;24.50;;;0.60;98.40;;;;;;4981719;28;20038;-64
2021/12/24 03:27:51;;;;;;;37.03;24.55;;;0.60;98.30;;;;;;4976909;28;20031;-64
2021/12/24 03:30:16;;;;;;;36.97;23.83;;;0.70;98.40;;;;;;4976479;28;20034;-64
2021/12/24 03:32:42;;;;;;;36.78;23.20;;;0.80;98.20;;;;;;4979810;28;20046;-63
2021/12/24 03:35:08;;;;;;;38.40;24.75;;;0.90;98.10;;;;;;4977069;28;20062;-64
2021/12/24 03:37:34;;;;;;;33.50;23.25;;;1.00;98.20;;;;;;4978872;28;20034;-64
2021/12/24 03:40:00;;;;;;;37.63;24.83;;;1.00;98.10;;;;;;4978250;28;20695;-63
2021/12/24 03:42:25;;;;;;;34.33;21.88;;;1.10;98.10;;;;;;4980082;28;20039;-64
2021/12/24 03:44:59;;;;;;;33.85;22.45;;;1.10;98.00;;;;;;4979179;28;20029;-64
2021/12/24 03:47:26;;;;;;;32.67;23.13;;;1.10;97.90;;;;;;4983152;28;20110;-64
2021/12/24 03:49:57;;;;;;;34.05;24.38;;;1.20;98.00;;;;;;4981271;28;20038;-64
2021/12/24 03:52:39;;;;;;;34.55;23.85;;;1.20;98.30;;;;;;4977387;28;20034;-64
2021/12/24 03:55:06;;;;;;;37.78;24.98;;;1.10;98.70;;;;;;4980567;28;20125;-63
2021/12/24 03:57:38;;;;;;;36.83;24.83;;;1.10;98.30;;;;;;4980008;28;20110;-64
2021/12/24 04:00:27;;;;;;;35.55;23.80;;;1.20;98.40;;;;;;4980300;28;20137;-64
2021/12/24 04:02:53;;;;;;;37.05;24.67;;;1.30;98.40;;;;;;4979327;28;20218;-64
2021/12/24 04:05:19;;;;;;;34.22;24.60;;;1.30;98.30;;;;;;4980827;28;20592;-65
2021/12/24 04:07:45;;;;;;;34.53;24.52;;;1.30;98.40;;;;;;4980611;28;20030;-64
2021/12/24 04:12:42;;;;;;;37.97;25.10;;;1.30;98.60;;;;;;4973529;28;20154;-63
2021/12/24 04:15:08;;;;;;;39.38;25.85;;;1.30;98.50;;;;;;4975808;28;20692;-64
2021/12/24 04:17:42;;;;;;;38.67;25.35;;;1.40;98.50;;;;;;4974054;28;20080;-65
2021/12/24 04:25:29;;;;;;;38.20;24.55;;;1.30;98.40;;;;;;4977388;28;20052;-64
2021/12/24 04:27:59;;;;;;;36.80;25.75;;;1.20;98.70;;;;;;4979491;28;20350;-64
2021/12/24 04:30:30;;;;;;;34.90;23.50;;;1.10;99.00;;;;;;4979356;28;20485;-64
2021/12/24 04:33:05;;;;;;;33.67;23.73;;;1.00;99.40;;;;;;4983172;28;20031;-64
2021/12/24 04:35:39;;;;;;;35.90;25.58;;;1.00;99.60;;;;;;4981864;28;20038;-64
2021/12/24 04:51:25;;;;;;;38.63;24.80;;;1.10;99.70;;;;;;4983855;28;20092;-64
2021/12/24 05:02:29;;;;;;;38.25;25.13;;;1.40;99.60;;;;;;4981619;28;20511;-64
2021/12/24 05:05:02;;;;;;;36.85;25.05;;;1.50;99.50;;;;;;4980137;28;20039;-64
2021/12/24 05:10:03;;;;;;;34.45;23.75;;;1.30;99.00;;;;;;4985656;28;20042;-63
2021/12/24 05:12:31;;;;;;;34.80;24.38;;;1.20;99.20;;;;;;4983404;28;20018;-65
2021/12/24 05:14:59;;;;;;;34.05;25.45;;;1.00;99.10;;;;;;4980427;28;20034;-63
2021/12/24 05:17:44;;;;;;;34.40;23.88;;;1.00;99.30;;;;;;4983771;28;20031;-64
2021/12/24 05:22:54;;;;;;;35.90;24.85;;;1.10;99.30;;;;;;4986176;28;20053;-64
2021/12/24 05:25:21;;;;;;;34.33;23.63;;;1.00;99.20;;;;;;4982050;28;20038;-64
2021/12/24 05:27:47;;;;;;;38.03;26.05;;;1.00;98.90;;;;;;4984106;28;20030;-64
2021/12/24 05:30:13;;;;;;;37.78;25.52;;;1.00;98.80;;;;;;4986994;28;20052;-64
2021/12/24 05:32:39;;;;;;;36.13;24.05;;;1.00;98.90;;;;;;4981994;28;20031;-63
2021/12/24 05:35:05;;;;;;;38.03;25.77;;;1.00;98.70;;;;;;4978867;28;20026;-62
2021/12/24 05:37:31;;;;;;;36.75;24.98;;;1.00;98.50;;;;;;4981785;28;20166;-64
2021/12/24 05:39:57;;;;;;;36.80;24.67;;;1.00;98.50;;;;;;4983052;28;20042;-64
2021/12/24 05:42:24;;;;;;;40.30;24.85;;;1.00;98.70;;;;;;4980753;28;20030;-63
2021/12/24 05:44:50;;;;;;;36.92;25.25;;;1.00;98.50;;;;;;4980914;28;20023;-64
2021/12/24 05:47:15;;;;;;;34.95;23.08;;;1.00;98.50;;;;;;4979661;28;20097;-64
2021/12/24 05:49:42;;;;;;;35.00;23.67;;;1.00;98.50;;;;;;4975903;28;20122;-63
2021/12/24 05:52:08;;;;;;;45.25;30.58;;;1.00;98.40;;;;;;4981598;28;20865;-63
2021/12/24 05:54:34;;;;;;;36.17;25.75;;;1.00;98.30;;;;;;4979659;28;20038;-63
2021/12/24 05:56:59;;;;;;;36.38;24.20;;;0.90;98.50;;;;;;4985988;28;20058;-64
2021/12/24 05:59:25;;;;;;;36.70;23.88;;;1.00;98.50;;;;;;4980541;28;20085;-64
2021/12/24 06:01:51;;;;;;;37.58;23.50;;;1.00;98.30;;;;;;4982787;28;20031;-64
2021/12/24 06:04:17;;;;;;;33.33;22.83;;;1.00;98.30;;;;;;4981431;28;20031;-63
2021/12/24 06:06:42;;;;;;;34.83;23.98;;;0.90;98.50;;;;;;4982475;28;20045;-64
2021/12/24 06:09:08;;;;;;;30.80;22.52;;;0.90;98.70;;;;;;4981263;28;20489;-64
2021/12/24 06:11:34;;;;;;;33.38;23.80;;;0.90;98.70;;;;;;4981863;28;20081;-64
2021/12/24 06:14:08;;;;;;;34.58;22.63;;;0.90;98.60;;;;;;4981406;28;20031;-64
2021/12/24 06:16:35;;;;;;;33.42;22.80;;;0.90;98.70;;;;;;4985402;28;20030;-63
2021/12/24 06:19:01;;;;;;;33.38;22.48;;;1.00;98.80;;;;;;4978321;28;20121;-64
2021/12/24 06:21:27;;;;;;;34.45;23.10;;;1.10;98.90;;;;;;4981023;28;20034;-65
2021/12/24 06:23:53;;;;;;;34.92;23.70;;;1.10;98.90;;;;;;4981058;28;20089;-64
2021/12/24 06:26:19;;;;;;;33.47;23.02;;;1.10;98.80;;;;;;4980249;28;20441;-64
2021/12/24 06:28:44;;;;;;;33.28;23.08;;;1.20;99.20;;;;;;4983347;28;20042;-64
2021/12/24 06:31:10;;;;;;;32.25;21.98;;;1.20;98.80;;;;;;4981186;28;20145;-64
2021/12/24 06:33:36;;;;;;;33.83;22.90;;;1.20;98.80;;;;;;4983035;28;20026;-64
2021/12/24 06:36:03;;;;;;;34.15;22.90;;;1.20;98.90;;;;;;4979747;28;20126;-64
2021/12/24 06:38:28;;;;;;;31.88;22.83;;;1.20;99.10;;;;;;4982763;28;20038;-64
2021/12/24 06:40:54;;;;;;;38.95;25.67;;;1.20;99.30;;;;;;4978079;28;20041;-63
2021/12/24 06:43:21;;;;;;;60.78;39.30;;;1.30;99.60;;;;;;4985465;28;20034;-63
2021/12/24 06:45:49;;;;;;;76.88;47.22;;;1.20;99.90;;;;;;4980529;28;20189;-63
2021/12/24 06:48:14;;;;;;;72.07;43.53;;;1.10;99.90;;;;;;4978456;28;20609;-63
2021/12/24 06:50:40;;;;;;;49.83;34.45;;;1.10;99.90;;;;;;4979508;28;20042;-64
2021/12/24 06:53:06;;;;;;;47.80;31.40;;;1.20;99.90;;;;;;4976078;28;20038;-65
2021/12/24 06:55:32;;;;;;;52.25;34.45;;;1.20;99.90;;;;;;4979699;28;20033;-64
2021/12/24 06:57:58;;;;;;;56.42;37.33;;;1.20;99.90;;;;;;4980761;28;20037;-65
2021/12/24 07:00:25;;;;;;;50.72;34.05;;;1.10;99.90;;;;;;4980779;28;20030;-64
2021/12/24 07:02:51;;;;;;;53.20;35.65;;;1.00;99.90;;;;;;4980556;28;20030;-63
2021/12/24 07:05:18;;;;;;;42.03;28.88;;;1.10;99.90;;;;;;4979083;28;20049;-63
2021/12/24 07:07:44;;;;;;;48.67;33.30;;;1.10;99.90;;;;;;4978412;28;20542;-63
2021/12/24 07:10:10;;;;;;;45.65;29.73;;;1.00;99.90;;;;;;4979656;28;20030;-63
2021/12/24 07:12:36;;;;;;;41.70;28.67;;;1.10;99.90;;;;;;4980069;28;20029;-63
2021/12/24 07:15:02;;;;;;;38.65;27.63;;;1.10;99.90;;;;;;4979930;28;20030;-63
2021/12/24 07:17:28;;;;;;;42.63;27.80;;;1.00;99.90;;;;;;4980255;28;20027;-63
2021/12/24 07:19:54;;;;;;;37.92;26.33;;;1.00;99.90;;;;;;4977896;28;22037;-63
2021/12/24 07:22:19;;;;;;;39.10;25.23;;;1.00;99.90;;;;;;4980522;28;20046;-63
2021/12/24 07:24:46;;;;;;;36.80;26.08;;;1.10;99.90;;;;;;4980526;28;20413;-63
2021/12/24 07:27:12;;;;;;;43.78;30.02;;;1.10;99.90;;;;;;4979664;28;20030;-63
2021/12/24 07:29:37;;;;;;;86.43;47.53;;;1.20;99.90;;;;;;4980716;28;20045;-63
2021/12/24 07:32:04;;;;;;;34.30;24.48;;;1.30;99.90;;;;;;4979917;28;20038;-65
2021/12/24 07:34:30;;;;;;;38.17;26.10;;;1.50;99.90;;;;;;4980686;28;20031;-64
2021/12/24 07:36:56;;;;;;;37.75;25.63;;;1.50;99.90;;;;;;4982304;28;20081;-63
2021/12/24 07:39:22;;;;;;;47.58;29.10;;;1.60;99.90;;;;;;4977192;28;20054;-63
2021/12/24 07:41:48;;;;;;;42.58;29.27;;;1.70;99.90;;;;;;4979354;28;20030;-63
2021/12/24 07:44:17;;;;;;;60.05;35.90;;;1.70;99.90;;;;;;4977256;28;20037;-63
2021/12/24 07:46:48;;;;;;;73.75;41.05;;;1.70;99.90;;;;;;4979504;28;20102;-64
2021/12/24 07:52:08;;;;;;;23.48;17.13;;;2.00;99.90;;;;;;4978748;28;20037;-63
2021/12/24 07:54:54;;;;;;;28.90;21.10;;;2.10;99.90;;;;;;4978291;28;20058;-64
2021/12/24 07:57:21;;;;;;;26.77;19.17;;;2.20;99.90;;;;;;4978945;28;20027;-64
2021/12/24 07:59:47;;;;;;;22.40;16.50;;;2.20;99.90;;;;;;4980264;28;20034;-64
2021/12/24 08:02:15;;;;;;;19.90;13.98;;;2.30;99.90;;;;;;4978734;28;20034;-64
2021/12/24 08:04:45;;;;;;;32.17;22.77;;;2.30;99.90;;;;;;4982429;28;20790;-64
2021/12/24 08:07:12;;;;;;;35.13;24.17;;;2.40;99.90;;;;;;4977004;28;20476;-64
2021/12/24 08:09:38;;;;;;;30.30;21.98;;;2.50;99.90;;;;;;4978971;28;20035;-64
2021/12/24 08:12:09;;;;;;;37.83;26.55;;;2.60;99.90;;;;;;4980831;28;20141;-64
2021/12/24 08:14:35;;;;;;;48.42;27.83;;;2.60;99.90;;;;;;4978294;28;20041;-64
2021/12/24 08:17:02;;;;;;;29.58;20.42;;;2.60;99.90;;;;;;4981382;28;20093;-64
2021/12/24 08:19:29;;;;;;;28.60;19.60;;;2.50;99.90;;;;;;4976979;28;20038;-64
2021/12/24 08:21:55;;;;;;;35.10;25.25;;;2.50;99.90;;;;;;4977912;28;20684;-64
2021/12/24 08:24:21;;;;;;;38.45;28.58;;;2.50;99.90;;;;;;4979027;28;20030;-64
2021/12/24 08:26:47;;;;;;;36.72;23.80;;;2.50;99.90;;;;;;4979346;28;20018;-64
2021/12/24 08:29:13;;;;;;;38.28;25.60;;;2.50;99.90;;;;;;4979309;28;20039;-64
2021/12/24 08:31:39;;;;;;;38.30;25.02;;;2.50;99.90;;;;;;4976831;28;20025;-64
2021/12/24 08:34:05;;;;;;;33.75;22.95;;;2.60;99.90;;;;;;4976761;28;20058;-64
2021/12/24 08:36:32;;;;;;;38.38;26.83;;;2.70;99.90;;;;;;4979446;28;20031;-64
2021/12/24 08:38:57;;;;;;;43.70;30.05;;;2.70;99.90;;;;;;4978761;28;20038;-65
2021/12/24 08:41:24;;;;;;;33.45;24.10;;;2.70;99.90;;;;;;4980711;28;20421;-65
2021/12/24 08:43:50;;;;;;;31.13;23.83;;;2.80;99.90;;;;;;4980477;28;20034;-64
2021/12/24 08:46:16;;;;;;;34.22;23.75;;;2.80;99.90;;;;;;4979852;28;20022;-64
2021/12/24 08:48:42;;;;;;;32.03;23.05;;;2.90;99.90;;;;;;4976811;28;20047;-64
2021/12/24 08:51:07;;;;;;;31.85;23.00;;;2.80;99.90;;;;;;4976615;28;20505;-64
2021/12/24 08:53:34;;;;;;;32.50;22.63;;;2.90;99.90;;;;;;4978693;28;20038;-64
2021/12/24 08:55:59;;;;;;;29.85;21.10;;;2.90;99.90;;;;;;4973859;28;20117;-65
2021/12/24 08:58:25;;;;;;;34.08;23.38;;;2.90;99.90;;;;;;4978364;28;20571;-65
2021/12/24 09:00:51;;;;;;;18.92;14.93;;;3.00;99.90;;;;;;4980608;28;20034;-65
2021/12/24 09:03:17;;;;;;;11.93;6.97;;;3.20;99.90;;;;;;4978335;28;20397;-66
2021/12/24 09:05:43;;;;;;;5.65;3.95;;;3.70;99.90;;;;;;4979549;28;20030;-66
2021/12/24 09:08:09;;;;;;;6.45;3.97;;;4.50;99.90;;;;;;4975778;28;20027;-66
2021/12/24 09:10:35;;;;;;;6.10;3.90;;;5.00;99.90;;;;;;4978083;28;20080;-65
2021/12/24 09:13:01;;;;;;;7.05;4.05;;;5.40;99.90;;;;;;4981514;28;20035;-66
2021/12/24 09:15:29;;;;;;;6.40;4.13;;;5.70;99.90;;;;;;4979324;28;20034;-65
2021/12/24 09:17:56;;;;;;;11.35;8.70;;;5.80;99.90;;;;;;4976777;28;20232;-64
2021/12/24 09:20:28;;;;;;;15.50;9.50;;;5.90;99.90;;;;;;4977365;28;21246;-65
2021/12/24 09:22:55;;;;;;;17.70;10.52;;;5.80;99.90;;;;;;4981161;28;20041;-64
2021/12/24 09:25:23;;;;;;;16.52;12.80;;;5.70;99.90;;;;;;4978220;28;20576;-64
2021/12/24 09:27:49;;;;;;;27.08;17.92;;;5.60;99.90;;;;;;4982610;28;20034;-64
2021/12/24 09:30:16;;;;;;;14.57;10.93;;;5.40;99.90;;;;;;4981561;28;20034;-67
2021/12/24 09:32:42;;;;;;;15.45;10.68;;;5.20;99.90;;;;;;4981800;28;20041;-67
2021/12/24 09:35:08;;;;;;;15.30;11.23;;;5.10;99.90;;;;;;4982961;28;20030;-67
2021/12/24 09:37:34;;;;;;;23.10;18.73;;;5.10;99.90;;;;;;4981781;28;20033;-67
2021/12/24 09:40:00;;;;;;;60.35;42.63;;;5.10;99.90;;;;;;4982118;28;20748;-67
2021/12/24 09:42:27;;;;;;;22.42;16.58;;;5.20;99.90;;;;;;4982208;28;20058;-67
2021/12/24 09:44:53;;;;;;;22.98;18.02;;;5.30;99.90;;;;;;4984484;28;20054;-66
2021/12/24 09:47:22;;;;;;;41.72;29.58;;;5.30;99.90;;;;;;4964319;28;20481;-66
2021/12/24 09:49:48;;;;;;;15.82;11.20;;;5.40;99.90;;;;;;4976126;28;20054;-67
2021/12/24 09:52:14;;;;;;;15.15;11.77;;;5.50;99.90;;;;;;4974849;28;20078;-66
2021/12/24 09:54:43;;;;;;;19.90;14.18;;;5.50;99.90;;;;;;4974131;28;20046;-66
2021/12/24 09:57:09;;;;;;;17.08;12.23;;;5.60;99.90;;;;;;4974942;28;20792;-68
2021/12/24 09:59:36;;;;;;;23.92;16.33;;;5.70;99.90;;;;;;4972110;28;20117;-67
2021/12/24 10:02:04;;;;;;;16.27;11.50;;;5.70;99.90;;;;;;4973513;28;20042;-67
2021/12/24 10:04:33;;;;;;;16.77;11.10;;;5.70;99.90;;;;;;4972823;28;20496;-67
2021/12/24 10:07:24;;;;;;;11.65;6.70;;;5.80;99.90;;;;;;4977948;28;20520;-66
2021/12/24 10:09:51;;;;;;;10.15;6.32;;;5.90;99.90;;;;;;4956165;28;20100;-66
2021/12/24 10:12:22;;;;;;;9.27;5.97;;;5.90;99.90;;;;;;4965513;28;20042;-66
2021/12/24 10:14:56;;;;;;;8.93;4.97;;;5.90;99.90;;;;;;4972294;28;20050;-66
2021/12/24 10:17:30;;;;;;;9.77;5.05;;;6.00;99.90;;;;;;4974747;28;20107;-67
2021/12/24 10:19:59;;;;;;;8.88;5.45;;;6.00;99.90;;;;;;4977660;28;20882;-68
2021/12/24 10:22:25;;;;;;;10.30;5.72;;;6.10;99.90;;;;;;4969232;28;20079;-67
2021/12/24 10:25:05;;;;;;;12.65;6.72;;;6.10;99.40;;;;;;4973777;28;20420;-67
2021/12/24 10:27:33;;;;;;;7.60;5.18;;;6.10;99.10;;;;;;4971937;28;20051;-67
2021/12/24 10:30:15;;;;;;;6.97;5.15;;;6.10;99.00;;;;;;4966624;28;20057;-67
2021/12/24 10:32:41;;;;;;;7.82;5.28;;;6.10;98.90;;;;;;4956745;28;20064;-67
2021/12/24 10:35:25;;;;;;;6.75;4.90;;;6.10;98.60;;;;;;4968295;28;20053;-67
2021/12/24 10:38:10;;;;;;;20.42;15.63;;;6.20;98.60;;;;;;4961984;28;20146;-67
2021/12/24 10:40:36;;;;;;;24.45;18.25;;;6.20;98.10;;;;;;4963201;28;20081;-67
2021/12/24 10:43:02;;;;;;;23.38;17.90;;;6.00;97.40;;;;;;4963118;28;20058;-67
2021/12/24 10:45:28;;;;;;;23.13;18.08;;;5.80;97.60;;;;;;4961022;28;20541;-68
2021/12/24 10:47:54;;;;;;;60.03;53.42;;;5.60;98.20;;;;;;4966698;28;20062;-66
2021/12/24 10:50:31;;;;;;;30.85;25.00;;;5.40;98.70;;;;;;4969935;28;20099;-67
2021/12/24 10:53:18;;;;;;;32.78;28.33;;;5.40;99.10;;;;;;4934135;28;20066;-66
2021/12/24 10:55:54;;;;;;;10.27;6.70;;;5.40;99.60;;;;;;4970084;28;20561;-66
2021/12/24 10:58:22;;;;;;;9.25;5.18;;;5.50;99.90;;;;;;4974379;28;20043;-67
2021/12/24 11:00:53;;;;;;;16.08;9.57;;;5.80;99.50;;;;;;4970282;28;20074;-67
2021/12/24 11:03:24;;;;;;;14.93;8.05;;;6.10;98.80;;;;;;4963353;28;20050;-66
2021/12/24 11:06:05;;;;;;;5.88;4.30;;;6.20;98.70;;;;;;4955556;28;20065;-66
2021/12/24 11:08:31;;;;;;;15.40;7.32;;;6.40;98.40;;;;;;4954947;28;20046;-67
2021/12/24 11:10:59;;;;;;;9.77;5.93;;;6.60;97.90;;;;;;4963985;28;20077;-67
2021/12/24 11:13:39;;;;;;;15.00;9.25;;;6.70;98.00;;;;;;4966545;28;20165;-67
2021/12/24 11:16:07;;;;;;;8.18;5.38;;;6.80;97.90;;;;;;4964939;28;20047;-65
2021/12/24 11:18:38;;;;;;;5.28;4.05;;;7.00;97.90;;;;;;4966947;28;20062;-65
2021/12/24 11:21:12;;;;;;;7.87;4.77;;;7.10;97.90;;;;;;4966162;28;20050;-65
2021/12/24 11:23:40;;;;;;;4.97;3.90;;;7.20;97.60;;;;;;4966665;28;20054;-66
2021/12/24 11:26:17;;;;;;;5.22;3.63;;;7.40;97.10;;;;;;4964638;28;20818;-66
2021/12/24 11:28:44;;;;;;;6.65;4.18;;;7.50;97.20;;;;;;4965871;28;20046;-65
2021/12/24 11:31:14;;;;;;;4.50;3.30;;;7.50;96.60;;;;;;4964625;28;20046;-67
2021/12/24 11:33:42;;;;;;;5.70;4.05;;;7.50;96.40;;;;;;4969988;28;20058;-67
2021/12/24 11:36:11;;;;;;;4.75;4.05;;;7.60;96.20;;;;;;4964687;28;20046;-67
2021/12/24 11:38:51;;;;;;;6.50;3.72;;;7.60;96.30;;;;;;4966523;28;20124;-65
2021/12/24 11:41:19;;;;;;;4.00;3.60;;;7.60;96.20;;;;;;4965831;28;20055;-66
2021/12/24 11:43:50;;;;;;;4.35;3.70;;;7.70;96.20;;;;;;4972232;28;20811;-66
2021/12/24 11:46:19;;;;;;;5.63;4.15;;;7.70;96.10;;;;;;4967207;28;20050;-66
2021/12/24 11:48:48;;;;;;;4.75;4.00;;;7.70;96.10;;;;;;4985695;28;20456;-66
2021/12/24 11:51:23;;;;;;;4.88;3.30;;;7.70;96.10;;;;;;4969574;28;20132;-66
2021/12/24 11:53:51;;;;;;;6.43;4.13;;;7.70;96.00;;;;;;4974160;28;20037;-66
2021/12/24 11:56:19;;;;;;;4.78;3.67;;;7.70;96.00;;;;;;4971876;28;20026;-66
2021/12/24 11:58:56;;;;;;;4.05;3.65;;;7.70;95.90;;;;;;4974198;28;20109;-66
2021/12/24 12:01:27;;;;;;;6.13;4.13;;;7.80;95.70;;;;;;4970707;28;20073;-65
2021/12/24 12:03:59;;;;;;;5.85;4.13;;;7.80;95.60;;;;;;4975756;28;20117;-65
2021/12/24 12:06:25;;;;;;;5.07;3.80;;;7.80;95.80;;;;;;4974196;28;20329;-66
2021/12/24 12:08:57;;;;;;;5.38;4.15;;;7.80;95.40;;;;;;4975746;28;20039;-65
2021/12/24 12:11:29;;;;;;;5.47;4.50;;;7.80;95.50;;;;;;4972823;28;20062;-65
2021/12/24 12:14:03;;;;;;;8.35;4.70;;;7.70;95.50;;;;;;4978345;28;22038;-67
2021/12/24 12:16:57;;;;;;;6.93;4.47;;;7.70;95.30;;;;;;4964807;28;20052;-67
2021/12/24 12:19:38;;;;;;;6.95;4.80;;;7.80;95.30;;;;;;4960188;28;20120;-66
2021/12/24 12:24:58;;;;;;;7.05;4.53;;;7.80;95.10;;;;;;4969084;28;20146;-66
2021/12/24 12:27:34;;;;;;;9.05;5.20;;;7.80;95.10;;;;;;4959403;28;20053;-66
2021/12/24 12:30:25;;;;;;;6.57;4.90;;;7.80;95.00;;;;;;4968702;28;20153;-65
2021/12/24 12:33:02;;;;;;;6.07;4.25;;;7.80;95.10;;;;;;4972398;28;20051;-66
2021/12/24 12:35:53;;;;;;;5.70;4.63;;;7.80;94.90;;;;;;4977802;28;20516;-65
2021/12/24 12:38:35;;;;;;;7.77;5.33;;;7.70;95.10;;;;;;4973603;28;20049;-67
2021/12/24 12:41:34;;;;;;;7.20;5.03;;;7.70;94.80;;;;;;4975576;28;20303;-66
2021/12/24 12:44:10;;;;;;;7.40;4.65;;;7.70;95.10;;;;;;4977665;28;20073;-66
2021/12/24 12:46:39;;;;;;;6.60;4.95;;;7.70;94.80;;;;;;4977522;28;20029;-65
2021/12/24 12:49:08;;;;;;;7.05;5.00;;;7.70;95.00;;;;;;4977840;28;20045;-67
2021/12/24 12:51:56;;;;;;;7.57;4.60;;;7.70;95.00;;;;;;4978550;28;20030;-66
2021/12/24 12:54:36;;;;;;;6.47;4.88;;;7.70;95.00;;;;;;4976593;28;21178;-67
2021/12/24 12:57:13;;;;;;;8.52;4.50;;;7.70;95.00;;;;;;4981650;28;20033;-67
2021/12/24 12:59:58;;;;;;;7.07;4.90;;;7.80;95.10;;;;;;4983320;28;20117;-66
2021/12/24 13:03:16;;;;;;;10.18;6.00;;;7.80;95.30;;;;;;4980620;28;20034;-65
2021/12/24 13:05:42;;;;;;;6.95;5.00;;;7.80;95.40;;;;;;4978500;28;22599;-66
2021/12/24 13:08:15;;;;;;;8.75;4.75;;;7.80;95.40;;;;;;4981886;28;20030;-65
2021/12/24 13:11:02;;;;;;;6.68;4.25;;;7.90;95.70;;;;;;4980811;28;20042;-66
2021/12/24 13:13:29;;;;;;;4.82;4.05;;;7.90;95.80;;;;;;4979866;28;20029;-66
2021/12/24 13:15:55;;;;;;;5.47;4.35;;;8.00;96.10;;;;;;4975441;28;20101;-66
2021/12/24 13:18:27;;;;;;;5.43;4.20;;;8.10;96.30;;;;;;4977387;28;20038;-66
2021/12/24 13:23:30;;;;;;;3.80;3.40;;;8.20;96.40;;;;;;4980699;28;20034;-66
2021/12/24 13:25:56;;;;;;;4.38;3.30;;;8.20;96.80;;;;;;4983401;28;20030;-65
2021/12/24 13:28:22;;;;;;;5.72;3.58;;;8.40;96.60;;;;;;4982761;28;20504;-66
2021/12/24 13:30:47;;;;;;;4.10;3.05;;;8.50;96.40;;;;;;4980999;28;20045;-66
2021/12/24 13:33:13;;;;;;;3.58;2.47;;;8.50;96.60;;;;;;4980259;28;20027;-67
2021/12/24 13:35:47;;;;;;;3.53;2.70;;;8.70;96.70;;;;;;4980225;28;20540;-65
2021/12/24 13:38:24;;;;;;;6.50;2.88;;;8.70;96.70;;;;;;4981417;28;21403;-64
2021/12/24 13:40:50;;;;;;;3.65;2.58;;;8.90;96.50;;;;;;4981513;28;20081;-65
2021/12/24 13:43:18;;;;;;;4.82;2.80;;;8.90;96.30;;;;;;4978946;28;20113;-65
2021/12/24 13:45:48;;;;;;;3.33;2.67;;;8.90;96.30;;;;;;5012955;28;20583;-65
2021/12/24 13:48:24;;;;;;;2.88;2.53;;;9.00;96.30;;;;;;4983463;28;20073;-65
2021/12/24 13:56:20;;;;;;;3.75;2.50;;;9.00;96.20;;;;;;4978782;28;20040;-64
2021/12/24 13:58:53;;;;;;;5.47;3.13;;;9.00;96.60;;;;;;4982049;28;20042;-64
2021/12/24 14:01:26;;;;;;;4.50;3.33;;;9.00;96.30;;;;;;4979604;28;20448;-64
2021/12/24 14:03:52;;;;;;;5.30;3.30;;;9.00;96.10;;;;;;4984218;28;20125;-64
2021/12/24 14:06:18;;;;;;;4.95;3.65;;;8.80;95.80;;;;;;4969959;28;22234;-63
2021/12/24 14:08:44;;;;;;;3.85;3.38;;;8.70;95.80;;;;;;4966464;28;20054;-64
2021/12/24 14:11:19;;;;;;;5.07;3.78;;;8.60;95.90;;;;;;4968888;28;20054;-64
2021/12/24 14:13:53;;;;;;;6.30;4.13;;;8.40;96.00;;;;;;4974029;28;20058;-65
2021/12/24 14:18:55;;;;;;;5.60;3.80;;;8.40;96.10;;;;;;4979075;28;20043;-64
2021/12/24 14:24:14;;;;;;;9.68;5.15;;;8.30;96.50;;;;;;4977532;28;20125;-65
2021/12/24 14:26:51;;;;;;;10.43;5.78;;;8.30;96.20;;;;;;4977158;28;20045;-64
2021/12/24 14:29:48;;;;;;;7.38;4.55;;;8.30;96.40;;;;;;4979824;28;20045;-64
2021/12/24 14:32:32;;;;;;;7.82;4.63;;;8.30;96.70;;;;;;4974499;28;20077;-64
2021/12/24 14:35:00;;;;;;;6.35;3.55;;;8.30;96.50;;;;;;4975400;28;20061;-64
2021/12/24 14:37:33;;;;;;;6.45;4.00;;;8.40;96.50;;;;;;4981546;28;20038;-64
2021/12/24 14:40:07;;;;;;;6.80;3.83;;;8.40;96.60;;;;;;4979459;28;20698;-64
2021/12/24 14:42:50;;;;;;;5.35;3.05;;;8.40;97.00;;;;;;4983512;28;20035;-64
2021/12/24 14:45:22;;;;;;;3.65;3.13;;;8.50;97.00;;;;;;4983795;28;20056;-65